Time;durP1;ratioP1;P1;durP2;ratioP2;P2;SDS_P1;SDS_P2;PMS_P1;PMS_P2;Temp;Humidity;BMP_temperature;BMP_pressure;BME280_temperature;BME280_humidity;BME280_pressure;Samples;Min_cycle;Max_cycle;Signal;HPM_P1;HPM_P2
2022/06/11 00:01:40;;;;;;;3.37;2.33;;;;;;;;;;4981064;28;20213;-59
2022/06/11 00:04:07;;;;;;;3.13;2.60;;;;;;;;;;4975900;28;20182;-59
2022/06/11 00:06:34;;;;;;;3.27;2.73;;;;;;;;;;4986234;28;20230;-59
2022/06/11 00:09:00;;;;;;;5.83;2.63;;;;;;;;;;4983976;28;20186;-58
2022/06/11 00:11:26;;;;;;;5.50;2.90;;;;;;;;;;4984251;28;20197;-58
2022/06/11 00:13:52;;;;;;;3.40;2.50;;;;;;;;;;4978003;28;20197;-58
2022/06/11 00:16:18;;;;;;;6.27;2.87;;;;;;;;;;4984127;28;20193;-59
2022/06/11 00:18:44;;;;;;;2.83;2.40;;;;;;;;;;4983580;28;20200;-58
2022/06/11 00:21:11;;;;;;;4.77;2.60;;;;;;;;;;4991117;28;20213;-57
2022/06/11 00:23:37;;;;;;;4.50;2.60;;;;;;;;;;4983199;28;20216;-58
2022/06/11 00:26:03;;;;;;;5.33;2.40;;;;;;;;;;4970597;28;20185;-57
2022/06/11 00:28:29;;;;;;;3.40;2.30;;;;;;;;;;4971445;28;20213;-58
2022/06/11 00:30:55;;;;;;;5.53;2.30;;;;;;;;;;4979018;28;21250;-60
2022/06/11 00:33:21;;;;;;;2.80;2.20;;;;;;;;;;4983209;28;20194;-59
2022/06/11 00:35:47;;;;;;;3.60;2.20;;;;;;;;;;4970700;28;20212;-58
2022/06/11 00:38:13;;;;;;;5.03;2.50;;;;;;;;;;4980049;28;20198;-58
2022/06/11 00:40:40;;;;;;;3.93;2.40;;;;;;;;;;4983704;28;20200;-58
2022/06/11 00:43:06;;;;;;;5.80;2.70;;;;;;;;;;4981537;28;20218;-58
2022/06/11 00:45:44;;;;;;;3.53;2.30;;;;;;;;;;4983602;28;20181;-59
2022/06/11 00:48:37;;;;;;;4.73;2.80;;;;;;;;;;4984463;28;20531;-58
2022/06/11 00:51:12;;;;;;;4.97;2.43;;;;;;;;;;4978541;28;20202;-58
2022/06/11 00:53:38;;;;;;;4.77;2.37;;;;;;;;;;4986543;28;20188;-58
2022/06/11 00:56:05;;;;;;;7.17;2.80;;;;;;;;;;4983417;28;20189;-59
2022/06/11 00:58:35;;;;;;;4.13;3.03;;;;;;;;;;4980005;28;20183;-58
2022/06/11 01:01:01;;;;;;;3.17;2.63;;;;;;;;;;4976094;28;20208;-59
2022/06/11 01:03:37;;;;;;;4.20;2.70;;;;;;;;;;4966910;28;20567;-58
2022/06/11 01:06:07;;;;;;;3.83;2.50;;;;;;;;;;4976209;28;20251;-57
2022/06/11 01:08:39;;;;;;;5.97;2.83;;;;;;;;;;4971940;28;20221;-59
2022/06/11 01:11:16;;;;;;;4.63;2.80;;;;;;;;;;4974299;28;20197;-59
2022/06/11 01:13:54;;;;;;;3.73;2.50;;;;;;;;;;4987740;28;20271;-58
2022/06/11 01:16:23;;;;;;;4.13;2.67;;;;;;;;;;4989089;28;20203;-58
2022/06/11 01:19:01;;;;;;;8.47;3.07;;;;;;;;;;4982536;28;20277;-58
2022/06/11 01:21:36;;;;;;;5.10;2.50;;;;;;;;;;4986954;28;20271;-59
2022/06/11 01:24:17;;;;;;;3.77;2.50;;;;;;;;;;4990758;28;20212;-59
2022/06/11 01:26:43;;;;;;;4.20;2.33;;;;;;;;;;4984023;28;20219;-59
2022/06/11 01:29:29;;;;;;;2.37;2.17;;;;;;;;;;4978307;28;20209;-58
2022/06/11 01:31:56;;;;;;;5.27;2.83;;;;;;;;;;4991040;28;20204;-58
2022/06/11 01:34:28;;;;;;;3.47;2.70;;;;;;;;;;4989232;28;20186;-58
2022/06/11 01:36:55;;;;;;;5.23;2.83;;;;;;;;;;4988384;28;20836;-58
2022/06/11 01:39:26;;;;;;;4.83;2.50;;;;;;;;;;4992618;28;20206;-59
2022/06/11 01:41:58;;;;;;;4.33;2.70;;;;;;;;;;4984888;28;20289;-58
2022/06/11 01:44:25;;;;;;;4.57;2.77;;;;;;;;;;4995813;28;20203;-59
2022/06/11 01:46:52;;;;;;;3.73;2.50;;;;;;;;;;4989493;28;21476;-59
2022/06/11 01:49:21;;;;;;;5.23;2.60;;;;;;;;;;4989643;28;20691;-58
2022/06/11 01:52:13;;;;;;;5.00;2.63;;;;;;;;;;4988027;28;20213;-59
2022/06/11 01:54:59;;;;;;;3.73;2.30;;;;;;;;;;4970576;28;20225;-58
2022/06/11 01:57:25;;;;;;;3.53;2.50;;;;;;;;;;4991903;28;20254;-58
2022/06/11 01:59:51;;;;;;;3.70;2.80;;;;;;;;;;4984526;28;20193;-59
2022/06/11 02:02:26;;;;;;;3.50;2.60;;;;;;;;;;4981634;28;20233;-58
2022/06/11 02:05:14;;;;;;;5.13;2.50;;;;;;;;;;4965670;28;20225;-59
2022/06/11 02:07:48;;;;;;;4.40;3.13;;;;;;;;;;4976856;28;21035;-58
2022/06/11 02:10:19;;;;;;;3.03;2.40;;;;;;;;;;4978546;28;20268;-59
2022/06/11 02:12:46;;;;;;;4.93;2.80;;;;;;;;;;4980513;28;20299;-58
2022/06/11 02:15:18;;;;;;;4.57;3.10;;;;;;;;;;4978475;28;20190;-59
2022/06/11 02:17:45;;;;;;;3.10;2.27;;;;;;;;;;4990782;28;20718;-59
2022/06/11 02:20:15;;;;;;;2.80;2.43;;;;;;;;;;4987002;28;20272;-58
2022/06/11 02:22:44;;;;;;;3.57;2.60;;;;;;;;;;4991005;28;20205;-58
2022/06/11 02:25:15;;;;;;;3.00;2.70;;;;;;;;;;4992162;28;20198;-59
2022/06/11 02:27:41;;;;;;;5.27;2.63;;;;;;;;;;4988747;28;20276;-59
2022/06/11 02:30:08;;;;;;;4.20;2.63;;;;;;;;;;4995449;28;20251;-58
2022/06/11 02:32:34;;;;;;;4.77;2.80;;;;;;;;;;4982128;28;20201;-58
2022/06/11 02:35:02;;;;;;;5.17;3.07;;;;;;;;;;4980280;28;20228;-59
2022/06/11 02:37:46;;;;;;;4.93;3.00;;;;;;;;;;4984771;28;20816;-59
2022/06/11 02:40:16;;;;;;;5.60;2.90;;;;;;;;;;4992250;28;20197;-59
2022/06/11 02:42:42;;;;;;;8.17;3.37;;;;;;;;;;4983253;28;20210;-58
2022/06/11 02:45:10;;;;;;;4.03;3.10;;;;;;;;;;4980936;28;20203;-59
2022/06/11 02:47:37;;;;;;;3.27;3.07;;;;;;;;;;4985647;28;20712;-58
2022/06/11 02:50:03;;;;;;;3.97;2.97;;;;;;;;;;4985109;28;20640;-58
2022/06/11 02:52:29;;;;;;;3.80;3.00;;;;;;;;;;4991218;28;20185;-58
2022/06/11 02:54:55;;;;;;;5.53;3.40;;;;;;;;;;4989276;28;20193;-59
2022/06/11 02:57:22;;;;;;;4.60;3.20;;;;;;;;;;4974538;28;20614;-59
2022/06/11 02:59:49;;;;;;;3.33;3.03;;;;;;;;;;4990795;28;20680;-59
2022/06/11 03:02:15;;;;;;;7.00;3.10;;;;;;;;;;4987328;28;20698;-58
2022/06/11 03:04:41;;;;;;;5.73;3.40;;;;;;;;;;4987743;28;20248;-59
2022/06/11 03:07:08;;;;;;;5.17;3.00;;;;;;;;;;4986032;28;20234;-59
2022/06/11 03:09:34;;;;;;;6.33;3.50;;;;;;;;;;4978588;28;20201;-59
2022/06/11 03:12:00;;;;;;;4.10;3.07;;;;;;;;;;4971960;28;20774;-58
2022/06/11 03:14:26;;;;;;;3.97;3.00;;;;;;;;;;4992593;28;20281;-58
2022/06/11 03:16:52;;;;;;;3.50;3.20;;;;;;;;;;4980384;28;20200;-58
2022/06/11 03:19:20;;;;;;;4.30;3.23;;;;;;;;;;4991301;28;20534;-59
2022/06/11 03:21:46;;;;;;;3.63;3.03;;;;;;;;;;4984279;28;20896;-58
2022/06/11 03:24:12;;;;;;;3.87;3.07;;;;;;;;;;4980080;28;20186;-59
2022/06/11 03:26:38;;;;;;;3.37;2.73;;;;;;;;;;4976646;28;20216;-58
2022/06/11 03:29:04;;;;;;;4.80;3.00;;;;;;;;;;4980647;28;20217;-59
2022/06/11 03:31:30;;;;;;;3.40;3.10;;;;;;;;;;4972632;28;20217;-59
2022/06/11 03:33:56;;;;;;;3.00;2.70;;;;;;;;;;4980291;28;20189;-58
2022/06/11 03:36:22;;;;;;;4.17;3.10;;;;;;;;;;4981955;28;20546;-58
2022/06/11 03:38:48;;;;;;;4.17;2.87;;;;;;;;;;4982301;28;20193;-58
2022/06/11 03:41:14;;;;;;;5.20;3.00;;;;;;;;;;4982040;28;20876;-58
2022/06/11 03:43:40;;;;;;;3.23;2.50;;;;;;;;;;4989093;28;20198;-58
2022/06/11 03:46:06;;;;;;;4.83;3.03;;;;;;;;;;4981408;28;20574;-59
2022/06/11 03:48:33;;;;;;;6.53;3.17;;;;;;;;;;4977334;28;20206;-59
2022/06/11 03:50:59;;;;;;;2.50;2.30;;;;;;;;;;4967603;28;20211;-58
2022/06/11 03:53:25;;;;;;;4.60;3.17;;;;;;;;;;4980343;28;20679;-59
2022/06/11 03:55:51;;;;;;;4.00;2.90;;;;;;;;;;4973586;28;20197;-58
2022/06/11 03:58:19;;;;;;;3.73;2.80;;;;;;;;;;4978126;28;20687;-58
2022/06/11 04:03:30;;;;;;;3.60;3.00;;;;;;;;;;4975636;28;20193;-59
2022/06/11 04:05:56;;;;;;;4.10;2.73;;;;;;;;;;4979366;28;20329;-58
2022/06/11 04:08:22;;;;;;;4.53;2.80;;;;;;;;;;4978647;28;20296;-59
2022/06/11 04:10:48;;;;;;;2.90;2.70;;;;;;;;;;4966776;28;20209;-59
2022/06/11 04:13:14;;;;;;;4.53;2.87;;;;;;;;;;4977897;28;20197;-57
2022/06/11 04:15:41;;;;;;;4.10;3.13;;;;;;;;;;4982845;28;20201;-59
2022/06/11 04:18:07;;;;;;;6.20;3.33;;;;;;;;;;4986928;28;20559;-58
2022/06/11 04:20:33;;;;;;;5.53;3.27;;;;;;;;;;4991734;28;20186;-59
2022/06/11 04:22:59;;;;;;;5.03;3.00;;;;;;;;;;4983019;28;20304;-58
2022/06/11 04:25:25;;;;;;;5.83;3.27;;;;;;;;;;4988694;28;20241;-58
2022/06/11 04:27:53;;;;;;;3.33;3.00;;;;;;;;;;4978339;28;20213;-59
2022/06/11 04:30:19;;;;;;;4.23;2.90;;;;;;;;;;4985037;28;20542;-60
2022/06/11 04:32:45;;;;;;;3.00;2.70;;;;;;;;;;4990956;28;20941;-59
2022/06/11 04:35:11;;;;;;;3.73;2.90;;;;;;;;;;4984233;28;20622;-59
2022/06/11 04:37:37;;;;;;;3.43;2.87;;;;;;;;;;4989711;28;20189;-58
2022/06/11 04:40:03;;;;;;;3.33;3.00;;;;;;;;;;4987740;28;20189;-59
2022/06/11 04:42:29;;;;;;;3.37;2.87;;;;;;;;;;4987372;28;20221;-59
2022/06/11 04:44:55;;;;;;;3.70;3.03;;;;;;;;;;4988563;28;20602;-59
2022/06/11 04:47:22;;;;;;;4.07;3.07;;;;;;;;;;4986579;28;20221;-59
2022/06/11 04:49:48;;;;;;;4.00;2.90;;;;;;;;;;4984313;28;20197;-59
2022/06/11 04:52:14;;;;;;;6.30;2.70;;;;;;;;;;4983746;28;20301;-59
2022/06/11 04:54:40;;;;;;;5.83;2.87;;;;;;;;;;4982500;28;20194;-59
2022/06/11 04:57:06;;;;;;;3.63;2.67;;;;;;;;;;4971949;28;20204;-57
2022/06/11 04:59:32;;;;;;;3.23;2.60;;;;;;;;;;4977114;28;20190;-57
2022/06/11 05:01:59;;;;;;;4.00;2.73;;;;;;;;;;4972703;28;20214;-59
2022/06/11 05:04:25;;;;;;;4.03;3.00;;;;;;;;;;4966662;28;20194;-60
2022/06/11 05:06:51;;;;;;;4.23;2.83;;;;;;;;;;4969350;28;21441;-58
2022/06/11 05:09:17;;;;;;;3.33;2.50;;;;;;;;;;4976945;28;20539;-59
2022/06/11 05:11:43;;;;;;;5.97;2.90;;;;;;;;;;4972887;28;20265;-58
2022/06/11 05:14:09;;;;;;;3.87;2.40;;;;;;;;;;4982995;28;20206;-60
2022/06/11 05:16:36;;;;;;;3.83;2.77;;;;;;;;;;4984092;28;20214;-58
2022/06/11 05:19:02;;;;;;;2.77;2.57;;;;;;;;;;4984766;28;20208;-59
2022/06/11 05:21:28;;;;;;;3.73;2.60;;;;;;;;;;4981193;28;20222;-58
2022/06/11 05:23:54;;;;;;;8.87;2.87;;;;;;;;;;4978598;28;20244;-58
2022/06/11 05:26:21;;;;;;;4.63;2.60;;;;;;;;;;4983561;28;20277;-59
2022/06/11 05:28:47;;;;;;;4.07;2.90;;;;;;;;;;4988960;28;20213;-58
2022/06/11 05:31:13;;;;;;;5.17;3.27;;;;;;;;;;4983447;28;20193;-62
2022/06/11 05:33:39;;;;;;;4.13;2.80;;;;;;;;;;4980507;28;20278;-61
2022/06/11 05:36:06;;;;;;;4.43;3.00;;;;;;;;;;4985238;28;20217;-60
2022/06/11 05:38:32;;;;;;;4.10;2.80;;;;;;;;;;4991783;28;20241;-59
2022/06/11 05:40:58;;;;;;;4.07;2.87;;;;;;;;;;4991972;28;20185;-61
2022/06/11 05:43:25;;;;;;;2.93;2.50;;;;;;;;;;4978542;28;20202;-60
2022/06/11 05:45:52;;;;;;;3.73;2.80;;;;;;;;;;4978341;28;20656;-61
2022/06/11 05:48:19;;;;;;;4.43;2.60;;;;;;;;;;4977570;28;20559;-60
2022/06/11 05:50:46;;;;;;;5.83;3.13;;;;;;;;;;4978517;28;20720;-60
2022/06/11 05:53:13;;;;;;;5.70;3.33;;;;;;;;;;4975378;28;20802;-61
2022/06/11 05:55:39;;;;;;;4.40;3.13;;;;;;;;;;4973595;28;20202;-60
2022/06/11 05:58:06;;;;;;;4.03;3.00;;;;;;;;;;4970352;28;20197;-60
2022/06/11 06:00:32;;;;;;;5.53;2.90;;;;;;;;;;4982372;28;20198;-61
2022/06/11 06:02:58;;;;;;;4.83;3.00;;;;;;;;;;4979164;28;20280;-60
2022/06/11 06:05:25;;;;;;;4.13;2.53;;;;;;;;;;4984462;28;20238;-61
2022/06/11 06:07:51;;;;;;;4.97;3.00;;;;;;;;;;4970374;28;21610;-58
2022/06/11 06:10:17;;;;;;;3.13;2.83;;;;;;;;;;4976643;28;20212;-57
2022/06/11 06:12:43;;;;;;;8.63;3.13;;;;;;;;;;4968801;28;20579;-57
2022/06/11 06:15:13;;;;;;;4.20;2.77;;;;;;;;;;4983539;28;20771;-60
2022/06/11 06:17:39;;;;;;;4.67;3.00;;;;;;;;;;4990510;28;20186;-59
2022/06/11 06:20:06;;;;;;;6.23;3.20;;;;;;;;;;4981388;28;20702;-59
2022/06/11 06:22:32;;;;;;;5.07;3.23;;;;;;;;;;4985958;28;20297;-60
2022/06/11 06:24:58;;;;;;;5.13;3.10;;;;;;;;;;4981315;28;20217;-59
2022/06/11 06:27:24;;;;;;;3.00;2.80;;;;;;;;;;4978726;28;20217;-59
2022/06/11 06:29:50;;;;;;;5.87;3.10;;;;;;;;;;4983555;28;20722;-58
2022/06/11 06:32:16;;;;;;;3.50;3.10;;;;;;;;;;4985773;28;21240;-60
2022/06/11 06:34:42;;;;;;;6.57;2.90;;;;;;;;;;4974915;28;20280;-58
2022/06/11 06:37:08;;;;;;;3.77;2.80;;;;;;;;;;4994558;28;20189;-58
2022/06/11 06:39:34;;;;;;;4.23;2.97;;;;;;;;;;4993551;28;20277;-56
2022/06/11 06:42:00;;;;;;;3.80;2.97;;;;;;;;;;4990146;28;20224;-57
2022/06/11 06:44:27;;;;;;;3.30;3.00;;;;;;;;;;4990217;28;20205;-57
2022/06/11 06:46:53;;;;;;;7.47;3.30;;;;;;;;;;4977732;28;20600;-58
2022/06/11 06:49:19;;;;;;;3.63;2.80;;;;;;;;;;4979459;28;20197;-56
2022/06/11 06:51:45;;;;;;;3.87;3.10;;;;;;;;;;4975986;28;20193;-57
2022/06/11 06:54:10;;;;;;;4.87;3.07;;;;;;;;;;4994911;28;20336;-56
2022/06/11 06:56:36;;;;;;;4.73;3.10;;;;;;;;;;5000357;28;20224;-56
2022/06/11 06:59:03;;;;;;;3.37;3.07;;;;;;;;;;4999904;28;20189;-56
2022/06/11 07:01:29;;;;;;;5.03;3.50;;;;;;;;;;4993437;28;20202;-57
2022/06/11 07:03:55;;;;;;;4.50;3.07;;;;;;;;;;4996305;28;20600;-57
2022/06/11 07:06:22;;;;;;;6.00;3.40;;;;;;;;;;4995359;28;20241;-56
2022/06/11 07:08:49;;;;;;;3.50;3.20;;;;;;;;;;5002422;28;20200;-56
2022/06/11 07:11:15;;;;;;;5.03;3.50;;;;;;;;;;4998114;28;20209;-57
2022/06/11 07:13:41;;;;;;;10.23;4.13;;;;;;;;;;4998163;28;20618;-57
2022/06/11 07:16:07;;;;;;;5.37;3.10;;;;;;;;;;4993999;28;20181;-57
2022/06/11 07:18:35;;;;;;;4.80;3.60;;;;;;;;;;5000301;28;20198;-58
2022/06/11 07:21:01;;;;;;;6.23;3.00;;;;;;;;;;4997738;28;20189;-57
2022/06/11 07:23:35;;;;;;;5.83;3.30;;;;;;;;;;4999921;28;20639;-56
2022/06/11 07:26:01;;;;;;;5.87;3.17;;;;;;;;;;4996821;28;20196;-57
2022/06/11 07:28:28;;;;;;;7.38;3.33;;;;;;;;;;4995766;28;20213;-57
2022/06/11 07:30:54;;;;;;;3.80;3.20;;;;;;;;;;4992094;28;20221;-57
2022/06/11 07:33:22;;;;;;;7.70;3.45;;;;;;;;;;4995692;28;20198;-57
2022/06/11 07:35:48;;;;;;;4.38;2.90;;;;;;;;;;4998351;28;20802;-57
2022/06/11 07:38:14;;;;;;;6.30;2.83;;;;;;;;;;4996135;28;20202;-57
2022/06/11 07:40:40;;;;;;;3.63;3.30;;;;;;;;;;4997133;28;20181;-57
2022/06/11 07:43:06;;;;;;;3.97;3.20;;;;;;;;;;4996458;28;20710;-57
2022/06/11 07:45:33;;;;;;;4.53;3.13;;;;;;;;;;4990005;28;20182;-56
2022/06/11 07:47:58;;;;;;;5.47;3.17;;;;;;;;;;4992325;28;20194;-56
2022/06/11 07:50:26;;;;;;;3.75;3.25;;;;;;;;;;4999346;28;20675;-57
2022/06/11 07:52:52;;;;;;;5.40;3.55;;;;;;;;;;5001109;28;20284;-56
2022/06/11 07:55:18;;;;;;;4.00;3.20;;;;;;;;;;5001788;28;20245;-57
2022/06/11 07:57:44;;;;;;;4.90;3.20;;;;;;;;;;5000479;28;20779;-56
2022/06/11 08:00:11;;;;;;;6.50;3.78;;;;;;;;;;4995394;28;20537;-57
2022/06/11 08:02:38;;;;;;;4.97;3.53;;;;;;;;;;4993742;28;20328;-56
2022/06/11 08:05:04;;;;;;;4.95;3.67;;;;;;;;;;4980833;28;20773;-58
2022/06/11 08:07:30;;;;;;;3.55;3.25;;;;;;;;;;4992909;28;20683;-58
2022/06/11 08:09:58;;;;;;;4.65;3.35;;;;;;;;;;5002486;28;20197;-58
2022/06/11 08:12:24;;;;;;;4.75;2.92;;;;;;;;;;5000353;28;20185;-58
2022/06/11 08:14:50;;;;;;;5.40;3.40;;;;;;;;;;5000572;28;20210;-58
2022/06/11 08:17:16;;;;;;;4.10;3.22;;;;;;;;;;4996485;28;20298;-58
2022/06/11 08:19:43;;;;;;;5.28;3.97;;;;;;;;;;4995730;28;20196;-57
2022/06/11 08:22:09;;;;;;;4.25;3.00;;;;;;;;;;4994360;28;20201;-58
2022/06/11 08:24:35;;;;;;;6.50;3.50;;;;;;;;;;4997776;28;20186;-58
2022/06/11 08:27:01;;;;;;;5.40;3.50;;;;;;;;;;4996393;28;20228;-58
2022/06/11 08:29:27;;;;;;;4.35;3.10;;;;;;;;;;4996072;28;20174;-57
2022/06/11 08:31:53;;;;;;;7.95;3.60;;;;;;;;;;4995914;28;21109;-58
2022/06/11 08:34:18;;;;;;;3.55;3.00;;;;;;;;;;4995227;28;20573;-57
2022/06/11 08:36:44;;;;;;;4.95;3.20;;;;;;;;;;4995803;28;20208;-57
2022/06/11 08:39:10;;;;;;;4.72;3.08;;;;;;;;;;4994739;28;20208;-58
2022/06/11 08:41:36;;;;;;;3.20;2.83;;;;;;;;;;4994139;28;20225;-57
2022/06/11 08:44:12;;;;;;;3.55;2.90;;;;;;;;;;4997633;28;20401;-56
2022/06/11 08:46:39;;;;;;;4.88;3.20;;;;;;;;;;4996289;28;20189;-56
2022/06/11 08:49:05;;;;;;;6.32;2.65;;;;;;;;;;4999466;28;20189;-57
2022/06/11 08:51:41;;;;;;;5.50;3.03;;;;;;;;;;4990157;28;20312;-57
2022/06/11 08:54:07;;;;;;;6.20;2.70;;;;;;;;;;4998903;28;20186;-57
2022/06/11 08:56:49;;;;;;;5.55;2.60;;;;;;;;;;4994670;28;20841;-57
2022/06/11 08:59:18;;;;;;;3.85;2.53;;;;;;;;;;4996964;28;20251;-57
2022/06/11 09:01:49;;;;;;;2.75;2.30;;;;;;;;;;4995019;28;20212;-57
2022/06/11 09:04:28;;;;;;;2.35;2.15;;;;;;;;;;5004015;28;20218;-56
2022/06/11 09:07:07;;;;;;;5.07;2.55;;;;;;;;;;4990565;28;20319;-57
2022/06/11 09:09:36;;;;;;;3.78;2.42;;;;;;;;;;4982017;28;20563;-57
2022/06/11 09:12:05;;;;;;;3.63;2.10;;;;;;;;;;4996966;28;20185;-57
2022/06/11 09:14:46;;;;;;;3.00;2.30;;;;;;;;;;4996847;28;20193;-57
2022/06/11 09:17:19;;;;;;;3.40;2.40;;;;;;;;;;4995783;28;20209;-57
2022/06/11 09:19:52;;;;;;;4.93;2.58;;;;;;;;;;4994969;28;20213;-57
2022/06/11 09:22:33;;;;;;;2.97;2.38;;;;;;;;;;4996377;28;20256;-57
2022/06/11 09:25:06;;;;;;;4.82;2.40;;;;;;;;;;4994456;28;20444;-57
2022/06/11 09:27:39;;;;;;;3.22;2.50;;;;;;;;;;4999868;28;20214;-57
2022/06/11 09:30:08;;;;;;;2.97;2.20;;;;;;;;;;4996002;28;20196;-57
2022/06/11 09:32:38;;;;;;;3.35;2.40;;;;;;;;;;4998806;28;20332;-56
2022/06/11 09:35:04;;;;;;;5.43;2.70;;;;;;;;;;4992626;28;20186;-57
2022/06/11 09:37:35;;;;;;;4.88;2.67;;;;;;;;;;4996758;28;20201;-57
2022/06/11 09:40:20;;;;;;;3.17;2.80;;;;;;;;;;4994502;28;20190;-57
2022/06/11 09:42:49;;;;;;;3.70;2.50;;;;;;;;;;4990985;28;20682;-57
2022/06/11 09:45:15;;;;;;;4.95;2.75;;;;;;;;;;4996490;28;20285;-56
2022/06/11 09:47:45;;;;;;;2.83;2.58;;;;;;;;;;4999817;28;20249;-57
2022/06/11 09:50:20;;;;;;;3.00;2.70;;;;;;;;;;5000475;28;20204;-57
2022/06/11 09:52:48;;;;;;;3.63;3.05;;;;;;;;;;4998865;28;20193;-58
2022/06/11 09:55:29;;;;;;;3.20;2.90;;;;;;;;;;5004051;28;20194;-58
2022/06/11 09:58:01;;;;;;;3.20;2.90;;;;;;;;;;5006541;28;20198;-58
2022/06/11 10:00:31;;;;;;;3.83;3.40;;;;;;;;;;5006472;28;20221;-56
2022/06/11 10:03:31;;;;;;;3.20;2.90;;;;;;;;;;5003961;28;20216;-57
2022/06/11 10:05:57;;;;;;;3.80;3.25;;;;;;;;;;4990238;28;20341;-57
2022/06/11 10:08:33;;;;;;;6.97;3.00;;;;;;;;;;4984976;28;20194;-60
2022/06/11 10:10:58;;;;;;;3.40;2.92;;;;;;;;;;4981355;28;20651;-60
2022/06/11 10:13:36;;;;;;;4.25;2.80;;;;;;;;;;4983185;28;20186;-60
2022/06/11 10:16:06;;;;;;;3.67;3.08;;;;;;;;;;4985907;28;20198;-60
2022/06/11 10:18:33;;;;;;;3.65;3.10;;;;;;;;;;4977420;28;20189;-59
2022/06/11 10:21:12;;;;;;;4.65;3.30;;;;;;;;;;4981004;28;20660;-58
2022/06/11 10:23:57;;;;;;;5.10;3.10;;;;;;;;;;4980455;28;20324;-59
2022/06/11 10:26:27;;;;;;;3.63;3.20;;;;;;;;;;4985042;28;20303;-59
2022/06/11 10:29:12;;;;;;;3.80;3.40;;;;;;;;;;4981281;28;20216;-60
2022/06/11 10:31:45;;;;;;;4.15;3.75;;;;;;;;;;4974619;28;20543;-61
2022/06/11 10:34:21;;;;;;;7.65;3.80;;;;;;;;;;4976471;28;20652;-61
2022/06/11 10:37:07;;;;;;;5.32;3.50;;;;;;;;;;4981372;28;20655;-62
2022/06/11 10:39:34;;;;;;;4.40;3.95;;;;;;;;;;4976796;28;20174;-60
2022/06/11 10:42:04;;;;;;;4.32;3.58;;;;;;;;;;4976203;28;20305;-60
2022/06/11 10:44:53;;;;;;;4.38;3.97;;;;;;;;;;4985775;28;20170;-60
2022/06/11 10:47:30;;;;;;;5.40;3.97;;;;;;;;;;4977155;28;20251;-60
2022/06/11 10:50:07;;;;;;;4.28;3.88;;;;;;;;;;4984375;28;20216;-60
2022/06/11 10:52:52;;;;;;;4.80;3.50;;;;;;;;;;4985976;28;20660;-61
2022/06/11 10:55:37;;;;;;;4.85;3.83;;;;;;;;;;4985387;28;20189;-59
2022/06/11 10:58:12;;;;;;;5.57;3.95;;;;;;;;;;4984789;28;20213;-59
2022/06/11 11:00:42;;;;;;;4.15;3.85;;;;;;;;;;4985199;28;20185;-59
2022/06/11 11:03:16;;;;;;;5.20;4.38;;;;;;;;;;4975315;28;20883;-59
2022/06/11 11:05:49;;;;;;;9.25;4.60;;;;;;;;;;5003779;28;20711;-59
2022/06/11 11:08:15;;;;;;;4.25;3.85;;;;;;;;;;4992886;28;21321;-60
2022/06/11 11:10:43;;;;;;;4.25;3.53;;;;;;;;;;4974866;28;20218;-60
2022/06/11 11:13:14;;;;;;;4.50;3.60;;;;;;;;;;4982229;28;20189;-60
2022/06/11 11:15:41;;;;;;;3.72;3.42;;;;;;;;;;4985737;28;20280;-60
2022/06/11 11:18:27;;;;;;;5.20;3.80;;;;;;;;;;4983862;28;20725;-60
2022/06/11 11:20:53;;;;;;;5.18;3.70;;;;;;;;;;4983934;28;20632;-62
2022/06/11 11:23:29;;;;;;;4.43;3.22;;;;;;;;;;4990146;28;20812;-61
2022/06/11 11:25:56;;;;;;;5.50;3.40;;;;;;;;;;4990483;28;20272;-62
2022/06/11 11:28:26;;;;;;;3.90;3.50;;;;;;;;;;4987560;28;20296;-61
2022/06/11 11:30:56;;;;;;;4.78;3.35;;;;;;;;;;4984391;28;20367;-62
2022/06/11 11:33:26;;;;;;;3.70;3.30;;;;;;;;;;4980285;28;20551;-62
2022/06/11 11:36:00;;;;;;;6.40;3.90;;;;;;;;;;4983985;28;21125;-62
2022/06/11 11:38:27;;;;;;;4.93;3.45;;;;;;;;;;4979506;28;20185;-62
2022/06/11 11:40:55;;;;;;;4.05;3.70;;;;;;;;;;4988831;28;20194;-61
2022/06/11 11:43:22;;;;;;;5.75;3.65;;;;;;;;;;4978080;28;20244;-62
2022/06/11 11:45:58;;;;;;;4.25;3.58;;;;;;;;;;4981472;28;20746;-62
2022/06/11 11:48:28;;;;;;;4.65;3.40;;;;;;;;;;4979863;28;20189;-60
2022/06/11 11:50:59;;;;;;;3.50;3.08;;;;;;;;;;4980615;28;20182;-62
2022/06/11 11:53:28;;;;;;;3.65;3.33;;;;;;;;;;4984955;28;20193;-62
2022/06/11 11:55:56;;;;;;;4.30;3.00;;;;;;;;;;4983168;28;20244;-60
2022/06/11 11:58:24;;;;;;;5.75;3.13;;;;;;;;;;4978458;28;20186;-61
2022/06/11 12:00:50;;;;;;;3.75;3.33;;;;;;;;;;4976759;28;20193;-61
2022/06/11 12:03:30;;;;;;;5.38;2.83;;;;;;;;;;4985823;28;20217;-67
2022/06/11 12:05:57;;;;;;;3.78;2.90;;;;;;;;;;4980983;28;20229;-68
2022/06/11 12:08:32;;;;;;;5.22;3.17;;;;;;;;;;5000992;28;20685;-68
2022/06/11 12:11:01;;;;;;;4.28;3.13;;;;;;;;;;4994695;28;20213;-67
2022/06/11 12:13:30;;;;;;;3.10;2.80;;;;;;;;;;4991748;28;20182;-68
2022/06/11 12:16:00;;;;;;;8.38;3.20;;;;;;;;;;4991324;28;20737;-68
2022/06/11 12:18:28;;;;;;;8.52;3.13;;;;;;;;;;4992740;28;20189;-67
2022/06/11 12:20:58;;;;;;;4.15;3.00;;;;;;;;;;4997030;28;20335;-68
2022/06/11 12:23:27;;;;;;;3.10;2.78;;;;;;;;;;4993827;28;20269;-67
2022/06/11 12:25:56;;;;;;;3.55;2.50;;;;;;;;;;4993198;28;20253;-67
2022/06/11 12:28:30;;;;;;;4.70;3.13;;;;;;;;;;4986922;28;20205;-68
2022/06/11 12:30:56;;;;;;;5.20;2.40;;;;;;;;;;4988516;28;20194;-67
2022/06/11 12:33:24;;;;;;;3.03;2.45;;;;;;;;;;4992265;28;20240;-67
2022/06/11 12:36:10;;;;;;;3.50;2.70;;;;;;;;;;4991978;28;20202;-68
2022/06/11 12:38:48;;;;;;;3.65;2.60;;;;;;;;;;4976372;28;20743;-63
2022/06/11 12:41:21;;;;;;;3.53;2.65;;;;;;;;;;4980411;28;20527;-62
2022/06/11 12:44:08;;;;;;;3.38;2.40;;;;;;;;;;4988700;28;20186;-62
2022/06/11 12:46:38;;;;;;;7.57;2.40;;;;;;;;;;4977060;28;20210;-66
2022/06/11 12:49:04;;;;;;;5.03;2.45;;;;;;;;;;4985640;28;20234;-62
2022/06/11 12:51:33;;;;;;;5.95;2.45;;;;;;;;;;4983580;28;20608;-64
2022/06/11 12:54:00;;;;;;;4.20;2.58;;;;;;;;;;4988319;28;20221;-63
2022/06/11 12:56:39;;;;;;;4.18;2.22;;;;;;;;;;4983489;28;20257;-62
2022/06/11 12:59:15;;;;;;;4.63;2.55;;;;;;;;;;4990105;28;20188;-63
2022/06/11 13:01:44;;;;;;;2.90;2.10;;;;;;;;;;4963506;28;20836;-64
2022/06/11 13:04:15;;;;;;;5.68;2.17;;;;;;;;;;4982773;28;20214;-63
2022/06/11 13:06:53;;;;;;;5.75;2.22;;;;;;;;;;4978145;28;20233;-64
2022/06/11 13:09:33;;;;;;;2.65;2.15;;;;;;;;;;4973562;28;20204;-63
2022/06/11 13:11:59;;;;;;;3.13;2.13;;;;;;;;;;4983195;28;20190;-63
2022/06/11 13:14:37;;;;;;;4.28;2.05;;;;;;;;;;4988403;28;20229;-62
2022/06/11 13:17:12;;;;;;;4.65;2.33;;;;;;;;;;4982588;28;20724;-62
2022/06/11 13:19:44;;;;;;;2.40;2.20;;;;;;;;;;4986753;28;20256;-63
2022/06/11 13:22:27;;;;;;;5.75;2.45;;;;;;;;;;4985720;28;20217;-62
2022/06/11 13:25:01;;;;;;;5.57;2.05;;;;;;;;;;4982836;28;20181;-63
2022/06/11 13:27:43;;;;;;;3.15;2.10;;;;;;;;;;4975403;28;20319;-64
2022/06/11 13:30:12;;;;;;;2.78;2.00;;;;;;;;;;4980602;28;20723;-62
2022/06/11 13:32:44;;;;;;;2.55;1.90;;;;;;;;;;4970428;28;20213;-64
2022/06/11 13:35:16;;;;;;;4.10;2.20;;;;;;;;;;4970256;28;20194;-63
2022/06/11 13:37:55;;;;;;;3.70;2.45;;;;;;;;;;4976164;28;20190;-63
2022/06/11 13:40:21;;;;;;;3.30;2.10;;;;;;;;;;4981921;28;20181;-63
2022/06/11 13:43:06;;;;;;;2.30;2.10;;;;;;;;;;4968533;28;20202;-63
2022/06/11 13:45:44;;;;;;;4.00;2.10;;;;;;;;;;4974854;28;20186;-63
2022/06/11 13:48:30;;;;;;;2.95;2.10;;;;;;;;;;4961784;28;20193;-63
2022/06/11 13:51:05;;;;;;;2.72;2.38;;;;;;;;;;4964276;28;20190;-63
2022/06/11 13:56:24;;;;;;;2.63;1.98;;;;;;;;;;4964797;28;20251;-63
2022/06/11 13:58:53;;;;;;;3.92;2.80;;;;;;;;;;4983287;28;20190;-62
2022/06/11 14:01:28;;;;;;;4.50;2.20;;;;;;;;;;4975486;28;20207;-62
2022/06/11 14:04:13;;;;;;;2.67;1.92;;;;;;;;;;4971927;28;20204;-62
2022/06/11 14:06:39;;;;;;;3.20;2.08;;;;;;;;;;4983519;28;20676;-63
2022/06/11 14:09:05;;;;;;;4.45;2.20;;;;;;;;;;4976290;28;20277;-63
2022/06/11 14:11:31;;;;;;;4.43;2.50;;;;;;;;;;4973199;28;20192;-63
2022/06/11 14:13:58;;;;;;;4.70;2.20;;;;;;;;;;4974864;28;20186;-63
2022/06/11 14:16:34;;;;;;;2.63;1.80;;;;;;;;;;4963716;28;20194;-67
2022/06/11 14:19:00;;;;;;;3.08;1.83;;;;;;;;;;4974318;28;20179;-62
2022/06/11 14:21:38;;;;;;;2.47;1.80;;;;;;;;;;4978668;28;20206;-63
2022/06/11 14:24:05;;;;;;;2.83;2.00;;;;;;;;;;4981244;28;20280;-63
2022/06/11 14:26:43;;;;;;;3.55;1.80;;;;;;;;;;4972383;28;20185;-62
2022/06/11 14:29:16;;;;;;;5.65;2.10;;;;;;;;;;4980020;28;20750;-62
2022/06/11 14:31:49;;;;;;;2.13;2.00;;;;;;;;;;4984236;28;20679;-62
2022/06/11 14:34:19;;;;;;;3.40;2.22;;;;;;;;;;4984595;28;20184;-63
2022/06/11 14:36:45;;;;;;;3.63;2.17;;;;;;;;;;4985935;28;20229;-62
2022/06/11 14:39:29;;;;;;;4.30;2.10;;;;;;;;;;4976851;28;20651;-63
2022/06/11 14:41:56;;;;;;;4.65;2.00;;;;;;;;;;4979829;28;20305;-62
2022/06/11 14:44:22;;;;;;;5.05;2.35;;;;;;;;;;4976512;28;20556;-62
2022/06/11 14:46:54;;;;;;;6.25;2.20;;;;;;;;;;4977886;28;20707;-64
2022/06/11 14:49:23;;;;;;;2.47;2.20;;;;;;;;;;4977222;28;20297;-62
2022/06/11 14:52:04;;;;;;;3.53;1.95;;;;;;;;;;4978014;28;20194;-62
2022/06/11 14:54:49;;;;;;;2.60;2.00;;;;;;;;;;4978748;28;20186;-63
2022/06/11 14:57:15;;;;;;;1.90;1.80;;;;;;;;;;4988821;28;20198;-62
2022/06/11 14:59:50;;;;;;;2.75;2.05;;;;;;;;;;4989487;28;20309;-62
2022/06/11 15:02:28;;;;;;;4.18;2.17;;;;;;;;;;4980511;28;20227;-63
2022/06/11 15:04:57;;;;;;;4.97;2.67;;;;;;;;;;4987514;28;20209;-62